Time;durP1;ratioP1;P1;durP2;ratioP2;P2;SDS_P1;SDS_P2;PMS_P1;PMS_P2;Temp;Humidity;BMP_temperature;BMP_pressure;BME280_temperature;BME280_humidity;BME280_pressure;Samples;Min_cycle;Max_cycle;Signal;HPM_P1;HPM_P2
2021/06/25 00:01:42;;;;;;;5.33;3.50;;;;;;;;;;5116195;28;20534;-71
2021/06/25 00:04:13;;;;;;;4.00;3.37;;;;;;;;;;5139511;27;20786;-69
2021/06/25 00:06:44;;;;;;;4.63;3.80;;;;;;;;;;5128330;27;21048;-71
2021/06/25 00:09:12;;;;;;;5.90;2.77;;;;;;;;;;5120030;28;20870;-70
2021/06/25 00:11:40;;;;;;;7.47;3.57;;;;;;;;;;5120213;28;20904;-70
2021/06/25 00:14:08;;;;;;;9.57;3.93;;;;;;;;;;5119557;28;20451;-70
2021/06/25 00:16:37;;;;;;;4.57;3.13;;;;;;;;;;5123219;27;20458;-70
2021/06/25 00:19:05;;;;;;;5.60;3.37;;;;;;;;;;5125500;27;20479;-70
2021/06/25 00:21:34;;;;;;;4.50;3.67;;;;;;;;;;5119425;27;21028;-70
2021/06/25 00:24:02;;;;;;;6.97;4.27;;;;;;;;;;5113605;28;20455;-71
2021/06/25 00:26:30;;;;;;;8.33;3.97;;;;;;;;;;5120590;27;20485;-70
2021/06/25 00:29:03;;;;;;;5.10;3.70;;;;;;;;;;5130508;27;20877;-69
2021/06/25 00:31:32;;;;;;;5.40;3.50;;;;;;;;;;5120406;27;20739;-71
2021/06/25 00:36:43;;;;;;;4.63;3.47;;;;;;;;;;5099928;27;20539;-70
2021/06/25 00:39:12;;;;;;;4.93;3.50;;;;;;;;;;5119139;28;20555;-71
2021/06/25 00:41:40;;;;;;;4.63;3.60;;;;;;;;;;5120041;27;20460;-70
2021/06/25 00:44:15;;;;;;;6.13;3.10;;;;;;;;;;5117891;28;21013;-72
2021/06/25 00:46:42;;;;;;;5.00;3.30;;;;;;;;;;5120092;27;20443;-70
2021/06/25 00:49:11;;;;;;;8.13;3.40;;;;;;;;;;5118667;28;20472;-70
2021/06/25 00:51:42;;;;;;;5.83;3.07;;;;;;;;;;5118723;28;21008;-71
2021/06/25 00:54:12;;;;;;;4.40;3.27;;;;;;;;;;5118752;28;20869;-69
2021/06/25 00:56:41;;;;;;;5.73;3.70;;;;;;;;;;5137490;27;20708;-69
2021/06/25 00:59:09;;;;;;;4.70;3.40;;;;;;;;;;5139791;27;20642;-70
2021/06/25 01:01:37;;;;;;;4.27;3.23;;;;;;;;;;5119997;27;20843;-71
2021/06/25 01:04:07;;;;;;;4.30;3.20;;;;;;;;;;5118433;28;20454;-69
2021/06/25 01:06:35;;;;;;;7.43;3.33;;;;;;;;;;5133967;27;20725;-71
2021/06/25 01:09:05;;;;;;;4.87;3.97;;;;;;;;;;5118398;28;20463;-71
2021/06/25 01:11:35;;;;;;;5.50;3.67;;;;;;;;;;5135130;27;20450;-70
2021/06/25 01:14:02;;;;;;;6.37;3.40;;;;;;;;;;5138702;27;20462;-71
2021/06/25 01:16:31;;;;;;;8.50;3.43;;;;;;;;;;5122056;27;20508;-71
2021/06/25 01:18:59;;;;;;;10.20;3.80;;;;;;;;;;5136689;27;20505;-70
2021/06/25 01:21:31;;;;;;;4.97;3.50;;;;;;;;;;5138687;27;20453;-70
2021/06/25 01:23:59;;;;;;;5.97;3.20;;;;;;;;;;5135158;27;20517;-70
2021/06/25 01:26:30;;;;;;;4.73;3.43;;;;;;;;;;5118771;27;20439;-71
2021/06/25 01:28:58;;;;;;;4.93;3.40;;;;;;;;;;5100685;27;20455;-70
2021/06/25 01:31:26;;;;;;;6.60;3.90;;;;;;;;;;5097686;28;20848;-69
2021/06/25 01:33:56;;;;;;;4.87;3.40;;;;;;;;;;5097785;28;20451;-70
2021/06/25 01:36:24;;;;;;;11.07;4.67;;;;;;;;;;5097102;28;20460;-70
2021/06/25 01:38:54;;;;;;;5.37;3.40;;;;;;;;;;5132113;27;20536;-70
2021/06/25 01:41:22;;;;;;;6.47;3.97;;;;;;;;;;5138054;27;20442;-69
2021/06/25 01:43:53;;;;;;;6.43;3.60;;;;;;;;;;5120369;27;20459;-70
2021/06/25 01:46:21;;;;;;;6.30;3.93;;;;;;;;;;5118413;27;20482;-70
2021/06/25 01:48:49;;;;;;;5.27;4.00;;;;;;;;;;5118057;28;20898;-70
2021/06/25 01:51:18;;;;;;;6.27;3.67;;;;;;;;;;5129208;27;20456;-69
2021/06/25 01:53:46;;;;;;;10.77;3.60;;;;;;;;;;5120479;27;20519;-69
2021/06/25 01:56:15;;;;;;;7.27;3.83;;;;;;;;;;5130824;27;20454;-70
2021/06/25 01:58:43;;;;;;;6.10;3.77;;;;;;;;;;5137673;27;20477;-69
2021/06/25 02:01:12;;;;;;;5.60;3.80;;;;;;;;;;5122321;27;20447;-69
2021/06/25 02:03:40;;;;;;;5.70;4.07;;;;;;;;;;5106103;28;20520;-70
2021/06/25 02:06:08;;;;;;;4.47;3.57;;;;;;;;;;5110338;28;20490;-70
2021/06/25 02:08:36;;;;;;;5.10;3.60;;;;;;;;;;5109039;28;20767;-69
2021/06/25 02:11:04;;;;;;;7.03;4.13;;;;;;;;;;5122302;27;20473;-69
2021/06/25 02:13:33;;;;;;;5.90;3.83;;;;;;;;;;5137641;27;20445;-70
2021/06/25 02:16:01;;;;;;;9.57;4.00;;;;;;;;;;5136048;27;20462;-69
2021/06/25 02:18:30;;;;;;;7.60;4.07;;;;;;;;;;5125976;27;20570;-70
2021/06/25 02:20:58;;;;;;;7.97;4.30;;;;;;;;;;5108085;28;20512;-70
2021/06/25 02:23:25;;;;;;;6.03;3.77;;;;;;;;;;5117210;28;20507;-70
2021/06/25 02:25:53;;;;;;;5.40;3.90;;;;;;;;;;5126522;28;20464;-70
2021/06/25 02:28:21;;;;;;;5.57;4.13;;;;;;;;;;5137584;28;20489;-70
2021/06/25 02:30:50;;;;;;;6.47;4.83;;;;;;;;;;5137709;28;20538;-70
2021/06/25 02:33:18;;;;;;;6.27;4.80;;;;;;;;;;5133163;28;20454;-70
2021/06/25 02:35:46;;;;;;;7.30;3.93;;;;;;;;;;5112621;28;20467;-70
2021/06/25 02:38:14;;;;;;;6.50;4.57;;;;;;;;;;5120269;28;20446;-70
2021/06/25 02:40:42;;;;;;;6.17;4.40;;;;;;;;;;5137368;28;20522;-70
2021/06/25 02:43:10;;;;;;;6.50;5.20;;;;;;;;;;5135104;28;20518;-72
2021/06/25 02:45:38;;;;;;;11.63;4.30;;;;;;;;;;5116926;28;20455;-70
2021/06/25 02:48:08;;;;;;;8.40;4.67;;;;;;;;;;5116741;28;20531;-70
2021/06/25 02:50:36;;;;;;;6.60;4.80;;;;;;;;;;5117434;28;20461;-70
2021/06/25 02:53:03;;;;;;;5.93;4.53;;;;;;;;;;5117743;28;20541;-70
2021/06/25 02:55:31;;;;;;;7.53;4.73;;;;;;;;;;5108835;28;20463;-70
2021/06/25 02:58:00;;;;;;;5.00;4.27;;;;;;;;;;5098578;28;20457;-70
2021/06/25 03:00:27;;;;;;;8.30;5.33;;;;;;;;;;5117363;28;20482;-70
2021/06/25 03:02:55;;;;;;;5.20;4.30;;;;;;;;;;5114997;28;20439;-70
2021/06/25 03:05:25;;;;;;;6.77;4.87;;;;;;;;;;5114251;28;20539;-70
2021/06/25 03:07:53;;;;;;;6.43;4.70;;;;;;;;;;5100062;27;20462;-70
2021/06/25 03:10:22;;;;;;;6.93;5.20;;;;;;;;;;5099228;28;20455;-70
2021/06/25 03:12:49;;;;;;;6.33;4.40;;;;;;;;;;5099247;28;20455;-70
2021/06/25 03:15:17;;;;;;;7.30;5.10;;;;;;;;;;5138957;27;20465;-70
2021/06/25 03:17:45;;;;;;;5.77;4.37;;;;;;;;;;5140521;27;20457;-70
2021/06/25 03:20:14;;;;;;;7.07;4.67;;;;;;;;;;5140055;27;20474;-70
2021/06/25 03:22:43;;;;;;;8.60;5.20;;;;;;;;;;5140105;27;20918;-70
2021/06/25 03:25:11;;;;;;;8.97;5.37;;;;;;;;;;5122109;27;20466;-70
2021/06/25 03:27:39;;;;;;;8.93;5.20;;;;;;;;;;5120309;28;20453;-70
2021/06/25 03:30:08;;;;;;;8.90;5.00;;;;;;;;;;5140462;27;20514;-69
2021/06/25 03:32:36;;;;;;;10.50;5.47;;;;;;;;;;5140783;27;20453;-70
2021/06/25 03:35:04;;;;;;;9.97;5.37;;;;;;;;;;5139666;27;20488;-70
2021/06/25 03:37:32;;;;;;;6.43;5.10;;;;;;;;;;5140292;27;20899;-70
2021/06/25 03:40:02;;;;;;;10.33;5.20;;;;;;;;;;5139796;27;20760;-70
2021/06/25 03:42:29;;;;;;;7.40;4.80;;;;;;;;;;5139913;27;20457;-70
2021/06/25 03:44:57;;;;;;;9.00;4.80;;;;;;;;;;5123863;27;20459;-70
2021/06/25 03:47:28;;;;;;;7.80;5.93;;;;;;;;;;5140209;27;20445;-70
2021/06/25 03:49:56;;;;;;;9.30;6.30;;;;;;;;;;5122832;27;20515;-71
2021/06/25 03:52:23;;;;;;;12.50;5.40;;;;;;;;;;5119875;28;20450;-70
2021/06/25 03:54:53;;;;;;;8.17;5.27;;;;;;;;;;5120753;27;20476;-70
2021/06/25 03:57:22;;;;;;;9.40;5.33;;;;;;;;;;5119457;28;20461;-70
2021/06/25 03:59:50;;;;;;;7.37;5.50;;;;;;;;;;5133801;27;20481;-70
2021/06/25 04:02:18;;;;;;;9.33;5.87;;;;;;;;;;5128882;27;20504;-70
2021/06/25 04:04:46;;;;;;;7.83;4.70;;;;;;;;;;5119516;28;20830;-70
2021/06/25 04:07:14;;;;;;;6.87;5.10;;;;;;;;;;5119621;28;20476;-70
2021/06/25 04:09:42;;;;;;;8.63;4.77;;;;;;;;;;5119591;28;20504;-70
2021/06/25 04:12:12;;;;;;;7.73;5.13;;;;;;;;;;5120551;27;20604;-70
2021/06/25 04:14:43;;;;;;;7.97;5.80;;;;;;;;;;5130044;27;20821;-71
2021/06/25 04:17:11;;;;;;;9.07;6.50;;;;;;;;;;5128193;27;20533;-70
2021/06/25 04:19:38;;;;;;;10.20;6.27;;;;;;;;;;5108667;27;20553;-71
2021/06/25 04:22:06;;;;;;;7.57;5.93;;;;;;;;;;5107876;28;20451;-71
2021/06/25 04:24:34;;;;;;;8.20;6.00;;;;;;;;;;5123411;27;20452;-71
2021/06/25 04:27:04;;;;;;;8.60;6.27;;;;;;;;;;5118033;28;20458;-71
2021/06/25 04:29:36;;;;;;;7.07;5.73;;;;;;;;;;5113955;27;20488;-69
2021/06/25 04:32:06;;;;;;;10.80;7.13;;;;;;;;;;5117182;28;20438;-71
2021/06/25 04:34:36;;;;;;;12.10;5.83;;;;;;;;;;5121521;27;20535;-70
2021/06/25 04:37:05;;;;;;;10.30;7.57;;;;;;;;;;5117803;28;20587;-72
2021/06/25 04:39:38;;;;;;;12.10;7.17;;;;;;;;;;5117205;28;20479;-71
2021/06/25 04:42:07;;;;;;;9.50;6.20;;;;;;;;;;5117893;28;20455;-70
2021/06/25 04:44:35;;;;;;;9.50;6.50;;;;;;;;;;5115752;28;21310;-70
2021/06/25 04:47:03;;;;;;;8.40;6.20;;;;;;;;;;5096833;28;20472;-70
2021/06/25 04:49:32;;;;;;;9.77;6.47;;;;;;;;;;5108654;28;20435;-71
2021/06/25 04:52:00;;;;;;;8.80;6.17;;;;;;;;;;5119179;27;20454;-70
2021/06/25 04:54:27;;;;;;;10.60;7.27;;;;;;;;;;5116912;28;20439;-70
2021/06/25 04:56:55;;;;;;;7.37;5.80;;;;;;;;;;5130628;27;20741;-70
2021/06/25 04:59:23;;;;;;;8.27;6.50;;;;;;;;;;5115158;27;20565;-70
2021/06/25 05:01:52;;;;;;;8.17;6.93;;;;;;;;;;5118204;27;20456;-70
2021/06/25 05:04:19;;;;;;;13.13;6.63;;;;;;;;;;5114598;28;20511;-70
2021/06/25 05:06:49;;;;;;;7.30;5.47;;;;;;;;;;5116905;28;20455;-70
2021/06/25 05:09:16;;;;;;;10.40;6.73;;;;;;;;;;5116845;28;20447;-70
2021/06/25 05:11:44;;;;;;;7.43;6.17;;;;;;;;;;5115673;28;20519;-70
2021/06/25 05:14:15;;;;;;;7.33;5.23;;;;;;;;;;5108483;28;20458;-71
2021/06/25 05:16:43;;;;;;;8.07;5.80;;;;;;;;;;5107712;27;20473;-71
2021/06/25 05:19:10;;;;;;;7.20;4.93;;;;;;;;;;5107989;28;20459;-70
2021/06/25 05:21:38;;;;;;;10.40;7.43;;;;;;;;;;5103862;28;20463;-70
2021/06/25 05:24:11;;;;;;;7.60;6.03;;;;;;;;;;5104488;28;21014;-71
2021/06/25 05:26:46;;;;;;;8.97;7.00;;;;;;;;;;5107467;28;20554;-70
2021/06/25 05:29:15;;;;;;;10.70;6.57;;;;;;;;;;5113896;28;20858;-70
2021/06/25 05:31:43;;;;;;;7.90;6.57;;;;;;;;;;5114644;28;20473;-71
2021/06/25 05:34:11;;;;;;;10.27;7.47;;;;;;;;;;5112658;27;20451;-70
2021/06/25 05:36:38;;;;;;;9.87;6.50;;;;;;;;;;5118561;27;20463;-70
2021/06/25 05:39:09;;;;;;;9.40;6.83;;;;;;;;;;5114408;28;20446;-70
2021/06/25 05:41:37;;;;;;;9.23;6.60;;;;;;;;;;5107944;27;20505;-71
2021/06/25 05:44:05;;;;;;;12.07;6.67;;;;;;;;;;5108177;27;21013;-71
2021/06/25 05:46:33;;;;;;;9.00;5.90;;;;;;;;;;5110475;28;20447;-70
2021/06/25 05:49:01;;;;;;;8.63;6.10;;;;;;;;;;5130955;27;20737;-71
2021/06/25 05:51:29;;;;;;;7.23;5.00;;;;;;;;;;5108045;28;20442;-71
2021/06/25 05:53:57;;;;;;;8.40;5.63;;;;;;;;;;5114682;28;20851;-70
2021/06/25 05:56:26;;;;;;;6.37;5.40;;;;;;;;;;5109316;28;20527;-71
2021/06/25 05:58:57;;;;;;;8.30;5.73;;;;;;;;;;5100338;28;20867;-71
2021/06/25 06:01:27;;;;;;;9.47;6.30;;;;;;;;;;5094671;28;20540;-70
2021/06/25 06:03:55;;;;;;;9.60;6.60;;;;;;;;;;5094929;28;20901;-70
2021/06/25 06:06:23;;;;;;;8.00;5.70;;;;;;;;;;5114153;28;20459;-70
2021/06/25 06:08:51;;;;;;;6.07;4.53;;;;;;;;;;5114454;28;20457;-71
2021/06/25 06:11:19;;;;;;;7.73;4.80;;;;;;;;;;5110263;28;20469;-70
2021/06/25 06:13:48;;;;;;;6.00;4.40;;;;;;;;;;5117962;27;20454;-70
2021/06/25 06:16:16;;;;;;;7.20;3.83;;;;;;;;;;5114852;28;20462;-70
2021/06/25 06:18:46;;;;;;;5.33;4.20;;;;;;;;;;5112799;28;20435;-70
2021/06/25 06:21:14;;;;;;;6.50;4.73;;;;;;;;;;5114071;28;21119;-70
2021/06/25 06:32:09;;;;;;;7.43;5.00;;;;;;;;;;5112683;28;20434;-71
2021/06/25 06:34:52;;;;;;;7.67;5.00;;;;;;;;;;5115973;28;20453;-71
2021/06/25 06:37:30;;;;;;;8.90;5.67;;;;;;;;;;5114485;28;20454;-70
2021/06/25 06:39:58;;;;;;;8.40;5.17;;;;;;;;;;5114001;28;20543;-71
2021/06/25 06:42:28;;;;;;;8.23;4.50;;;;;;;;;;5121017;28;20457;-71
2021/06/25 06:44:58;;;;;;;9.80;4.27;;;;;;;;;;5119623;28;20450;-70
2021/06/25 06:47:26;;;;;;;6.17;3.93;;;;;;;;;;5119421;28;20470;-71
2021/06/25 06:49:54;;;;;;;4.20;3.07;;;;;;;;;;5118804;28;20462;-69
2021/06/25 06:52:22;;;;;;;6.00;4.13;;;;;;;;;;5118299;28;20465;-71
2021/06/25 06:54:50;;;;;;;6.00;4.20;;;;;;;;;;5124896;27;20458;-70
2021/06/25 06:57:18;;;;;;;6.70;3.80;;;;;;;;;;5125013;27;20488;-71
2021/06/25 06:59:46;;;;;;;4.97;3.60;;;;;;;;;;5138535;27;20458;-72
2021/06/25 07:02:15;;;;;;;10.43;4.20;;;;;;;;;;5138009;27;20753;-71
2021/06/25 07:04:43;;;;;;;4.70;3.87;;;;;;;;;;5139210;27;20486;-71
2021/06/25 07:07:11;;;;;;;6.60;3.70;;;;;;;;;;5139765;27;20453;-71
2021/06/25 07:09:39;;;;;;;5.43;3.53;;;;;;;;;;5136039;27;20465;-71
2021/06/25 07:12:11;;;;;;;4.73;3.57;;;;;;;;;;5130117;27;20482;-71
2021/06/25 07:14:38;;;;;;;4.50;3.13;;;;;;;;;;5118541;28;20886;-70
2021/06/25 07:17:06;;;;;;;5.33;2.90;;;;;;;;;;5118302;28;20524;-70
2021/06/25 07:19:36;;;;;;;4.53;3.73;;;;;;;;;;5116606;28;20466;-69
2021/06/25 07:22:03;;;;;;;5.00;3.10;;;;;;;;;;5116286;28;20485;-70
2021/06/25 07:24:31;;;;;;;6.17;3.67;;;;;;;;;;5115234;28;20474;-69
2021/06/25 07:26:59;;;;;;;8.30;3.70;;;;;;;;;;5116742;28;20447;-70
2021/06/25 07:29:27;;;;;;;4.67;2.90;;;;;;;;;;5115727;28;20534;-71
2021/06/25 07:31:58;;;;;;;4.60;3.13;;;;;;;;;;5118465;28;20451;-71
2021/06/25 07:34:26;;;;;;;4.63;3.20;;;;;;;;;;5125270;27;20456;-71
2021/06/25 07:36:57;;;;;;;8.80;4.00;;;;;;;;;;5119346;27;20869;-70
2021/06/25 07:39:25;;;;;;;5.73;3.17;;;;;;;;;;5119017;27;20458;-70
2021/06/25 07:41:53;;;;;;;3.77;2.47;;;;;;;;;;5118494;27;20535;-70
2021/06/25 07:44:21;;;;;;;7.00;3.10;;;;;;;;;;5117908;27;20451;-71
2021/06/25 07:46:50;;;;;;;4.60;2.90;;;;;;;;;;5121733;27;20450;-71
2021/06/25 07:49:19;;;;;;;5.43;3.00;;;;;;;;;;5111314;27;20861;-71
2021/06/25 07:51:50;;;;;;;3.70;2.60;;;;;;;;;;5118925;27;20454;-71
2021/06/25 07:54:21;;;;;;;3.93;3.00;;;;;;;;;;5118216;27;20462;-69
2021/06/25 07:56:49;;;;;;;5.60;3.00;;;;;;;;;;5117332;28;20443;-71
2021/06/25 07:59:25;;;;;;;3.43;2.50;;;;;;;;;;5117824;28;20454;-71
2021/06/25 08:01:56;;;;;;;3.00;2.20;;;;;;;;;;5118048;28;20574;-72
2021/06/25 08:04:31;;;;;;;4.53;2.80;;;;;;;;;;5112269;28;20463;-71
2021/06/25 08:06:59;;;;;;;4.40;2.63;;;;;;;;;;5118154;28;20450;-70
2021/06/25 08:09:29;;;;;;;3.70;2.03;;;;;;;;;;5127926;27;20434;-72
2021/06/25 08:11:57;;;;;;;3.37;1.97;;;;;;;;;;5134448;27;20461;-71
2021/06/25 08:14:25;;;;;;;3.00;2.37;;;;;;;;;;5111189;27;20465;-71
2021/06/25 08:16:53;;;;;;;3.70;2.27;;;;;;;;;;5120370;27;20591;-72
2021/06/25 08:19:22;;;;;;;5.30;3.07;;;;;;;;;;5117172;27;20467;-72
2021/06/25 08:21:50;;;;;;;5.67;2.60;;;;;;;;;;5104930;28;20475;-71
2021/06/25 08:24:19;;;;;;;5.60;2.30;;;;;;;;;;5116054;28;20573;-71
2021/06/25 08:26:50;;;;;;;4.37;2.10;;;;;;;;;;5132846;27;20518;-72
2021/06/25 08:29:19;;;;;;;3.00;1.63;;;;;;;;;;5116790;28;20748;-71
2021/06/25 08:31:49;;;;;;;2.80;1.97;;;;;;;;;;5116274;28;20465;-71
2021/06/25 08:34:18;;;;;;;4.00;2.27;;;;;;;;;;5117877;27;20737;-72
2021/06/25 08:36:49;;;;;;;4.13;1.60;;;;;;;;;;5114194;28;20448;-72
2021/06/25 08:39:20;;;;;;;4.07;1.63;;;;;;;;;;5119166;27;20460;-72
2021/06/25 08:41:49;;;;;;;2.60;1.90;;;;;;;;;;5124632;27;20946;-72
2021/06/25 08:44:17;;;;;;;5.20;1.80;;;;;;;;;;5118834;27;20527;-70
2021/06/25 08:46:47;;;;;;;4.10;1.90;;;;;;;;;;5100469;28;20455;-70
2021/06/25 08:49:17;;;;;;;2.93;2.43;;;;;;;;;;5116974;28;20493;-71
2021/06/25 08:51:48;;;;;;;4.37;2.33;;;;;;;;;;5115484;28;20447;-71
2021/06/25 08:54:16;;;;;;;2.93;1.70;;;;;;;;;;5114748;28;20451;-71
2021/06/25 08:56:45;;;;;;;4.83;1.80;;;;;;;;;;5117208;27;20572;-72
2021/06/25 08:59:18;;;;;;;2.40;1.80;;;;;;;;;;5116113;27;20462;-72
2021/06/25 09:01:48;;;;;;;4.37;2.60;;;;;;;;;;5121567;27;20738;-73
2021/06/25 09:04:32;;;;;;;3.30;1.77;;;;;;;;;;5119654;27;20459;-73
2021/06/25 09:07:00;;;;;;;3.30;2.10;;;;;;;;;;5115545;27;20569;-72
2021/06/25 09:09:39;;;;;;;3.93;2.10;;;;;;;;;;5119707;27;20454;-72
2021/06/25 09:12:26;;;;;;;3.10;1.90;;;;;;;;;;5123182;27;20474;-71
2021/06/25 09:15:06;;;;;;;7.13;2.40;;;;;;;;;;5114344;28;20467;-72
2021/06/25 09:17:45;;;;;;;3.37;2.13;;;;;;;;;;5115177;27;20441;-72
2021/06/25 09:20:30;;;;;;;3.17;1.83;;;;;;;;;;5115638;27;20460;-71
2021/06/25 09:22:58;;;;;;;4.10;1.90;;;;;;;;;;5111287;28;20446;-72
2021/06/25 09:25:47;;;;;;;3.60;2.00;;;;;;;;;;5110962;27;20454;-72
2021/06/25 09:28:28;;;;;;;4.00;1.90;;;;;;;;;;5119734;28;20457;-71
2021/06/25 09:30:57;;;;;;;2.87;2.20;;;;;;;;;;5115424;27;20450;-72
2021/06/25 09:33:26;;;;;;;5.07;2.33;;;;;;;;;;5121147;27;20764;-72
2021/06/25 09:35:55;;;;;;;3.67;2.63;;;;;;;;;;5134835;27;20588;-72
2021/06/25 09:38:33;;;;;;;3.67;2.50;;;;;;;;;;5119663;27;20557;-71
2021/06/25 09:41:01;;;;;;;3.53;3.20;;;;;;;;;;5114802;28;20593;-72
2021/06/25 09:43:34;;;;;;;3.70;2.60;;;;;;;;;;5115091;28;20512;-72
2021/06/25 09:46:14;;;;;;;3.30;2.50;;;;;;;;;;5115323;28;20466;-72
2021/06/25 09:48:54;;;;;;;3.73;2.40;;;;;;;;;;5116229;27;20529;-71
2021/06/25 09:51:23;;;;;;;5.13;3.03;;;;;;;;;;5123731;27;20461;-71
2021/06/25 09:54:12;;;;;;;8.23;6.00;;;;;;;;;;5115054;28;20477;-71
2021/06/25 09:56:49;;;;;;;4.20;3.20;;;;;;;;;;5111300;28;20459;-71
2021/06/25 09:59:29;;;;;;;5.10;3.50;;;;;;;;;;5123461;27;20898;-71
2021/06/25 10:02:00;;;;;;;4.60;2.80;;;;;;;;;;5112397;27;20482;-71
2021/06/25 10:04:37;;;;;;;10.27;3.43;;;;;;;;;;5109313;28;20752;-70
2021/06/25 10:07:13;;;;;;;3.60;2.67;;;;;;;;;;5105388;27;20438;-70
2021/06/25 10:09:43;;;;;;;4.43;3.03;;;;;;;;;;5097019;27;20549;-70
2021/06/25 10:12:12;;;;;;;4.67;3.00;;;;;;;;;;5114224;28;20442;-70
2021/06/25 10:17:39;;;;;;;4.90;3.13;;;;;;;;;;5112196;28;20541;-70
2021/06/25 10:23:07;;;;;;;4.03;3.13;;;;;;;;;;5109619;28;20778;-71
2021/06/25 10:26:12;;;;;;;5.50;3.10;;;;;;;;;;5121551;27;20462;-70
2021/06/25 10:28:43;;;;;;;4.43;3.37;;;;;;;;;;5115287;28;20459;-70
2021/06/25 10:31:14;;;;;;;4.33;3.40;;;;;;;;;;5114464;28;20530;-70
2021/06/25 10:33:51;;;;;;;4.10;3.17;;;;;;;;;;5115282;28;20528;-70
2021/06/25 10:36:24;;;;;;;6.07;4.20;;;;;;;;;;5115466;28;20493;-70
2021/06/25 10:39:09;;;;;;;4.37;3.00;;;;;;;;;;5114215;28;20781;-73
2021/06/25 10:42:16;;;;;;;7.07;2.90;;;;;;;;;;5097236;28;20519;-71
2021/06/25 10:44:57;;;;;;;4.00;3.17;;;;;;;;;;5109302;28;20898;-71
2021/06/25 10:47:32;;;;;;;3.93;2.60;;;;;;;;;;5115885;28;20571;-72
2021/06/25 10:50:32;;;;;;;3.93;3.03;;;;;;;;;;5097064;28;20534;-70
2021/06/25 10:53:14;;;;;;;3.80;2.80;;;;;;;;;;5052402;28;20461;-71
2021/06/25 10:59:09;;;;;;;5.20;3.97;;;;;;;;;;5045728;28;20472;-70
2021/06/25 11:02:08;;;;;;;6.50;4.30;;;;;;;;;;5095971;28;20573;-72
2021/06/25 11:04:47;;;;;;;3.73;3.17;;;;;;;;;;5113753;28;20449;-71
2021/06/25 11:07:26;;;;;;;4.80;3.53;;;;;;;;;;5114364;28;20482;-72
2021/06/25 11:10:11;;;;;;;3.90;3.17;;;;;;;;;;5112994;28;20457;-71
2021/06/25 11:12:54;;;;;;;5.37;3.40;;;;;;;;;;5112387;28;20450;-71
2021/06/25 11:15:36;;;;;;;6.03;3.70;;;;;;;;;;5082282;28;20535;-71
2021/06/25 11:18:28;;;;;;;5.20;3.67;;;;;;;;;;5093667;28;20585;-71
2021/06/25 11:20:58;;;;;;;5.10;4.40;;;;;;;;;;5101492;28;20445;-71
2021/06/25 11:23:30;;;;;;;4.80;3.30;;;;;;;;;;5114221;28;20451;-71
2021/06/25 11:25:59;;;;;;;6.07;3.50;;;;;;;;;;5114005;28;20512;-71
2021/06/25 11:28:42;;;;;;;5.20;3.30;;;;;;;;;;5116910;27;20458;-70
2021/06/25 11:31:30;;;;;;;6.27;4.90;;;;;;;;;;5096625;28;20453;-69
2021/06/25 11:34:03;;;;;;;4.83;3.50;;;;;;;;;;5120910;27;20462;-71
2021/06/25 11:36:40;;;;;;;4.50;4.10;;;;;;;;;;5116421;28;20461;-70
2021/06/25 11:39:29;;;;;;;6.40;4.00;;;;;;;;;;5115752;28;20453;-71
2021/06/25 11:42:06;;;;;;;4.03;3.37;;;;;;;;;;5116909;28;20479;-71
2021/06/25 11:44:39;;;;;;;5.37;3.90;;;;;;;;;;5109720;28;20443;-70
2021/06/25 11:47:14;;;;;;;4.60;3.77;;;;;;;;;;5109878;28;20880;-70
2021/06/25 11:49:44;;;;;;;5.83;4.53;;;;;;;;;;5100500;28;20464;-70
2021/06/25 11:52:17;;;;;;;6.17;4.10;;;;;;;;;;5115400;28;20746;-71
2021/06/25 11:54:47;;;;;;;6.13;3.70;;;;;;;;;;5106969;28;20451;-70
2021/06/25 11:57:22;;;;;;;4.40;3.20;;;;;;;;;;5115677;28;20450;-70
2021/06/25 12:00:10;;;;;;;6.57;4.30;;;;;;;;;;5115444;28;20469;-71
2021/06/25 12:02:48;;;;;;;5.97;3.90;;;;;;;;;;5126211;27;20762;-71
2021/06/25 12:05:21;;;;;;;5.33;3.50;;;;;;;;;;5125970;27;20720;-70
2021/06/25 12:08:03;;;;;;;5.50;4.00;;;;;;;;;;5116780;28;20459;-69
2021/06/25 12:10:35;;;;;;;5.93;3.63;;;;;;;;;;5090759;28;20451;-71
2021/06/25 12:13:08;;;;;;;3.43;3.10;;;;;;;;;;5131262;27;20737;-70
2021/06/25 12:15:44;;;;;;;5.10;4.60;;;;;;;;;;5097949;28;20473;-71
2021/06/25 12:18:21;;;;;;;4.93;4.43;;;;;;;;;;5125456;27;20454;-69
2021/06/25 12:20:49;;;;;;;9.33;4.13;;;;;;;;;;5119623;27;20455;-70
2021/06/25 12:23:19;;;;;;;8.10;4.70;;;;;;;;;;5116576;28;20574;-70
2021/06/25 12:25:52;;;;;;;5.90;5.23;;;;;;;;;;5116299;28;20450;-70
2021/06/25 12:28:21;;;;;;;4.77;3.43;;;;;;;;;;5120426;27;20445;-71
2021/06/25 12:30:49;;;;;;;5.50;3.13;;;;;;;;;;5113615;27;20786;-70
2021/06/25 12:33:41;;;;;;;5.30;4.77;;;;;;;;;;5114623;27;20718;-70
2021/06/25 12:36:16;;;;;;;5.37;4.87;;;;;;;;;;5111130;28;20500;-71
2021/06/25 12:38:46;;;;;;;4.73;4.23;;;;;;;;;;5117515;27;20446;-69
2021/06/25 12:41:19;;;;;;;5.47;3.50;;;;;;;;;;5105852;27;20840;-71
2021/06/25 12:44:02;;;;;;;5.03;3.97;;;;;;;;;;5109178;28;20439;-71
2021/06/25 12:46:34;;;;;;;7.13;4.77;;;;;;;;;;5122238;27;20453;-71
2021/06/25 12:49:06;;;;;;;14.63;13.07;;;;;;;;;;5114852;28;20467;-70
2021/06/25 12:51:39;;;;;;;4.43;4.00;;;;;;;;;;5121973;27;20455;-75
2021/06/25 12:54:10;;;;;;;5.40;3.80;;;;;;;;;;5114737;28;20735;-70
2021/06/25 12:56:55;;;;;;;5.83;3.77;;;;;;;;;;5117406;28;20465;-70
2021/06/25 12:59:24;;;;;;;5.50;4.00;;;;;;;;;;5109208;28;20462;-70
2021/06/25 13:01:54;;;;;;;5.10;4.60;;;;;;;;;;5116539;28;20754;-70
2021/06/25 13:04:24;;;;;;;6.80;4.10;;;;;;;;;;5115595;28;20524;-70
2021/06/25 13:06:55;;;;;;;5.07;3.80;;;;;;;;;;5130036;27;20454;-71
2021/06/25 13:09:25;;;;;;;4.77;3.80;;;;;;;;;;5134637;27;20481;-70
2021/06/25 13:11:54;;;;;;;5.00;4.30;;;;;;;;;;5118975;27;20461;-71
2021/06/25 13:14:32;;;;;;;4.67;3.97;;;;;;;;;;5115589;28;20455;-70
2021/06/25 13:17:01;;;;;;;5.80;4.20;;;;;;;;;;5115097;28;20443;-70
2021/06/25 13:19:43;;;;;;;4.30;3.40;;;;;;;;;;5115220;28;20463;-70
2021/06/25 13:22:24;;;;;;;4.97;4.33;;;;;;;;;;5116186;28;20478;-70
2021/06/25 13:24:59;;;;;;;8.03;4.10;;;;;;;;;;5114391;28;20462;-70
2021/06/25 13:27:30;;;;;;;4.60;3.77;;;;;;;;;;5115059;28;20500;-70
2021/06/25 13:29:59;;;;;;;5.90;4.50;;;;;;;;;;5104697;28;20456;-70
2021/06/25 13:32:28;;;;;;;4.70;3.87;;;;;;;;;;5106331;27;20880;-71
2021/06/25 13:35:03;;;;;;;7.33;3.83;;;;;;;;;;5113352;28;21066;-71
2021/06/25 13:40:58;;;;;;;8.00;4.63;;;;;;;;;;5114485;28;20458;-71
2021/06/25 13:43:33;;;;;;;6.30;4.53;;;;;;;;;;5115417;28;20482;-71
2021/06/25 13:46:07;;;;;;;4.10;3.40;;;;;;;;;;5114783;28;20530;-72
2021/06/25 13:48:38;;;;;;;6.07;5.10;;;;;;;;;;5117503;28;20466;-71
2021/06/25 13:51:09;;;;;;;8.20;5.37;;;;;;;;;;5116322;28;20558;-70
2021/06/25 13:53:39;;;;;;;4.90;4.10;;;;;;;;;;5113495;28;21101;-71
2021/06/25 13:56:10;;;;;;;4.40;3.70;;;;;;;;;;5118581;27;20461;-71
2021/06/25 13:58:56;;;;;;;5.40;4.63;;;;;;;;;;5124676;27;20490;-71
2021/06/25 14:01:25;;;;;;;5.20;4.60;;;;;;;;;;5111107;28;20500;-70
2021/06/25 14:04:05;;;;;;;4.50;4.10;;;;;;;;;;5104542;27;20550;-70
2021/06/25 14:06:36;;;;;;;4.57;3.90;;;;;;;;;;5113595;27;20478;-71
2021/06/25 14:09:22;;;;;;;4.53;3.70;;;;;;;;;;5119570;27;20478;-72
2021/06/25 14:12:21;;;;;;;6.90;4.60;;;;;;;;;;5094657;28;20456;-71
2021/06/25 14:14:55;;;;;;;5.50;4.23;;;;;;;;;;5090162;28;20455;-72
2021/06/25 14:17:32;;;;;;;5.70;5.10;;;;;;;;;;5088904;28;20554;-72
2021/06/25 14:20:11;;;;;;;5.37;4.37;;;;;;;;;;5087979;28;20448;-72
2021/06/25 14:22:42;;;;;;;4.90;4.10;;;;;;;;;;5081845;28;20491;-71
2021/06/25 14:25:11;;;;;;;4.97;4.37;;;;;;;;;;5092460;28;20471;-72
2021/06/25 14:27:42;;;;;;;5.20;4.03;;;;;;;;;;5084776;28;20458;-71
2021/06/25 14:30:13;;;;;;;5.17;3.80;;;;;;;;;;5085555;28;20471;-72
2021/06/25 14:32:49;;;;;;;4.80;3.80;;;;;;;;;;5085721;28;20876;-72
2021/06/25 14:35:17;;;;;;;5.13;4.00;;;;;;;;;;5089144;28;20521;-71
2021/06/25 14:37:47;;;;;;;3.80;3.30;;;;;;;;;;5094260;28;20821;-70
2021/06/25 14:40:17;;;;;;;4.70;4.10;;;;;;;;;;5094177;28;20464;-71
2021/06/25 14:42:45;;;;;;;6.63;3.90;;;;;;;;;;5092917;28;20541;-70
2021/06/25 14:45:14;;;;;;;4.23;3.50;;;;;;;;;;5084020;28;20460;-70
2021/06/25 14:47:46;;;;;;;11.10;7.20;;;;;;;;;;5093367;28;20537;-70
2021/06/25 14:50:21;;;;;;;5.43;4.37;;;;;;;;;;5092028;28;20555;-71
2021/06/25 14:52:51;;;;;;;4.20;3.80;;;;;;;;;;5095067;28;20463;-72
2021/06/25 14:55:22;;;;;;;5.87;3.60;;;;;;;;;;5094033;28;20467;-72
2021/06/25 14:57:50;;;;;;;5.07;3.40;;;;;;;;;;5093562;28;20452;-72
2021/06/25 15:00:21;;;;;;;5.07;4.57;;;;;;;;;;5093761;28;20432;-72
2021/06/25 15:02:49;;;;;;;4.27;3.77;;;;;;;;;;5084978;28;20566;-71
2021/06/25 15:05:22;;;;;;;4.43;3.40;;;;;;;;;;5087526;28;20452;-72
2021/06/25 15:07:56;;;;;;;4.37;3.50;;;;;;;;;;5087970;28;20447;-72
2021/06/25 15:10:38;;;;;;;4.57;3.07;;;;;;;;;;5089707;28;20488;-71
2021/06/25 15:13:06;;;;;;;4.00;3.47;;;;;;;;;;5097501;28;20521;-72
2021/06/25 15:15:34;;;;;;;7.23;3.03;;;;;;;;;;5096837;28;20467;-72
2021/06/25 15:18:02;;;;;;;4.80;3.17;;;;;;;;;;5097920;28;20468;-72
2021/06/25 15:20:36;;;;;;;3.67;3.13;;;;;;;;;;5097134;28;20865;-71
2021/06/25 15:23:06;;;;;;;4.70;3.03;;;;;;;;;;5097237;28;20479;-71
2021/06/25 15:25:34;;;;;;;4.50;4.00;;;;;;;;;;5098529;28;20660;-71
2021/06/25 15:28:04;;;;;;;4.10;3.10;;;;;;;;;;5097350;28;20471;-71
2021/06/25 15:30:35;;;;;;;6.60;3.90;;;;;;;;;;5096837;28;20878;-71
2021/06/25 15:33:04;;;;;;;6.60;3.90;;;;;;;;;;5098160;28;20502;-72